Time;durP1;ratioP1;P1;durP2;ratioP2;P2;SDS_P1;SDS_P2;PMS_P1;PMS_P2;Temp;Humidity;BMP_temperature;BMP_pressure;BME280_temperature;BME280_humidity;BME280_pressure;Samples;Min_cycle;Max_cycle;Signal;HPM_P1;HPM_P2
2023/06/03 00:00:04;;;;;;;11.05;5.30;;;11.90;99.90;;;;;;5012424;28;20179;-76
2023/06/03 00:02:29;;;;;;;8.35;5.47;;;11.80;99.90;;;;;;5013527;28;20210;-76
2023/06/03 00:04:55;;;;;;;8.45;5.22;;;11.70;99.90;;;;;;5015404;28;20632;-77
2023/06/03 00:07:21;;;;;;;10.47;5.50;;;11.60;99.90;;;;;;5016330;28;20183;-76
2023/06/03 00:09:47;;;;;;;9.45;5.30;;;11.60;99.90;;;;;;5017459;28;20239;-77
2023/06/03 00:12:12;;;;;;;9.27;5.70;;;11.50;99.90;;;;;;5017486;28;20195;-77
2023/06/03 00:14:38;;;;;;;7.63;4.88;;;11.50;99.90;;;;;;5016210;28;20187;-76
2023/06/03 00:17:04;;;;;;;11.10;5.30;;;11.50;99.90;;;;;;5016005;28;20206;-77
2023/06/03 00:19:30;;;;;;;7.70;4.80;;;11.40;99.90;;;;;;5016181;28;20183;-76
2023/06/03 00:21:56;;;;;;;10.63;5.65;;;11.20;99.90;;;;;;5016021;28;20199;-77
2023/06/03 00:24:22;;;;;;;7.25;5.55;;;11.10;99.90;;;;;;5017183;28;20675;-77
2023/06/03 00:26:58;;;;;;;9.45;5.57;;;10.90;99.90;;;;;;5017190;28;20179;-77
2023/06/03 00:29:25;;;;;;;8.52;5.72;;;10.80;99.90;;;;;;5017205;28;20647;-76
2023/06/03 00:31:51;;;;;;;10.85;6.07;;;10.70;99.90;;;;;;5017105;28;20195;-77
2023/06/03 00:34:17;;;;;;;11.45;5.78;;;10.60;99.90;;;;;;5017036;28;20277;-77
2023/06/03 00:36:43;;;;;;;10.10;6.15;;;10.50;99.90;;;;;;5032021;28;20274;-77
2023/06/03 00:39:09;;;;;;;11.00;6.32;;;10.60;99.90;;;;;;5015751;28;20172;-76
2023/06/03 00:41:35;;;;;;;9.70;6.20;;;10.60;99.90;;;;;;5016889;28;20659;-77
2023/06/03 00:44:01;;;;;;;9.55;5.70;;;10.70;99.90;;;;;;5016943;28;20222;-76
2023/06/03 00:46:28;;;;;;;10.13;5.90;;;10.70;99.90;;;;;;5015659;28;20180;-76
2023/06/03 00:48:53;;;;;;;8.35;5.35;;;10.70;99.90;;;;;;5015620;28;20175;-76
2023/06/03 00:51:20;;;;;;;11.57;6.20;;;10.70;99.90;;;;;;5015700;28;20186;-76
2023/06/03 00:53:46;;;;;;;10.85;5.65;;;10.70;99.90;;;;;;5017167;28;20624;-76
2023/06/03 00:56:15;;;;;;;7.95;5.90;;;10.70;99.90;;;;;;5016981;28;20202;-76
2023/06/03 00:58:41;;;;;;;13.95;6.35;;;10.80;99.90;;;;;;5015899;28;20168;-76
2023/06/03 01:01:07;;;;;;;8.68;5.50;;;10.80;99.90;;;;;;5015454;28;20187;-77
2023/06/03 01:03:33;;;;;;;10.27;5.75;;;10.70;99.90;;;;;;5016527;28;20171;-76
2023/06/03 01:06:21;;;;;;;8.70;5.87;;;10.70;99.90;;;;;;5015347;28;20237;-76
2023/06/03 01:08:53;;;;;;;8.23;5.40;;;10.70;99.90;;;;;;5016504;28;20243;-77
2023/06/03 01:11:22;;;;;;;9.50;5.40;;;10.70;99.90;;;;;;5016453;28;20182;-76
2023/06/03 01:13:53;;;;;;;11.37;6.40;;;10.70;99.90;;;;;;5015306;28;20551;-76
2023/06/03 01:16:23;;;;;;;12.40;6.45;;;10.60;99.90;;;;;;5016473;28;20278;-77
2023/06/03 01:18:49;;;;;;;10.70;5.93;;;10.60;99.90;;;;;;5015544;28;20262;-77
2023/06/03 01:21:16;;;;;;;9.93;5.80;;;10.60;99.90;;;;;;5017653;28;20176;-77
2023/06/03 01:23:43;;;;;;;12.50;6.47;;;10.50;99.90;;;;;;5015947;28;20180;-77
2023/06/03 01:26:11;;;;;;;8.90;6.40;;;10.50;99.90;;;;;;5017004;28;20625;-77
2023/06/03 01:28:38;;;;;;;9.53;6.27;;;10.60;99.90;;;;;;5016904;28;20168;-76
2023/06/03 01:31:06;;;;;;;11.27;6.28;;;10.50;99.90;;;;;;5015090;28;20619;-77
2023/06/03 01:33:35;;;;;;;11.57;6.33;;;10.50;99.90;;;;;;5016546;28;20184;-78
2023/06/03 01:36:03;;;;;;;10.47;5.80;;;10.40;99.90;;;;;;5014938;28;20692;-77
2023/06/03 01:38:29;;;;;;;13.40;6.30;;;10.40;99.90;;;;;;5015175;28;20168;-76
2023/06/03 01:40:55;;;;;;;8.38;6.03;;;10.30;99.90;;;;;;5016505;28;20179;-77
2023/06/03 01:43:21;;;;;;;9.20;6.13;;;10.30;99.90;;;;;;5016759;28;20192;-78
2023/06/03 01:45:47;;;;;;;9.53;6.40;;;10.20;99.90;;;;;;5017043;28;20171;-78
2023/06/03 01:48:14;;;;;;;9.63;6.97;;;10.30;99.90;;;;;;5016484;28;20276;-78
2023/06/03 01:50:41;;;;;;;10.27;6.33;;;10.30;99.90;;;;;;5016895;28;20176;-74
2023/06/03 01:53:07;;;;;;;10.37;6.33;;;10.20;99.90;;;;;;5016542;28;20195;-74
2023/06/03 01:55:33;;;;;;;7.23;5.87;;;10.20;99.90;;;;;;5015948;28;20210;-74
2023/06/03 01:57:59;;;;;;;7.27;5.73;;;10.10;99.90;;;;;;5014283;28;20176;-75
2023/06/03 02:00:25;;;;;;;7.93;6.10;;;10.10;99.90;;;;;;5015843;28;20226;-75
2023/06/03 02:02:50;;;;;;;10.27;6.67;;;10.00;99.90;;;;;;5015556;28;20199;-75
2023/06/03 02:05:16;;;;;;;9.27;5.70;;;9.80;99.90;;;;;;5015570;28;20198;-75
2023/06/03 02:07:42;;;;;;;12.27;6.63;;;9.80;99.90;;;;;;5015592;28;20191;-75
2023/06/03 02:10:08;;;;;;;7.93;6.37;;;9.80;99.90;;;;;;5015852;28;20596;-75
2023/06/03 02:12:34;;;;;;;9.23;6.10;;;9.70;99.90;;;;;;5013999;28;20250;-75
2023/06/03 02:15:00;;;;;;;7.10;5.50;;;9.50;99.90;;;;;;5014084;28;20176;-75
2023/06/03 02:17:26;;;;;;;10.47;6.00;;;9.40;99.90;;;;;;5015516;28;20238;-74
2023/06/03 02:19:55;;;;;;;9.73;5.37;;;9.40;99.90;;;;;;5015523;28;20694;-75
2023/06/03 02:22:22;;;;;;;9.93;6.23;;;9.50;99.90;;;;;;5015110;28;20278;-74
2023/06/03 02:24:49;;;;;;;7.77;6.03;;;9.50;99.90;;;;;;5015125;28;20210;-75
2023/06/03 02:27:16;;;;;;;8.43;5.90;;;9.50;99.90;;;;;;5014639;28;20199;-75
2023/06/03 02:29:45;;;;;;;8.07;6.00;;;9.50;99.90;;;;;;5015702;28;20180;-74
2023/06/03 02:32:10;;;;;;;10.03;6.10;;;9.60;99.90;;;;;;5013763;28;20251;-75
2023/06/03 02:34:36;;;;;;;8.27;5.87;;;9.60;99.90;;;;;;5013785;28;20188;-75
2023/06/03 02:37:02;;;;;;;13.83;5.90;;;9.60;99.90;;;;;;5014758;28;20215;-75
2023/06/03 02:39:28;;;;;;;8.43;6.30;;;9.60;99.90;;;;;;5014838;28;20179;-74
2023/06/03 02:41:53;;;;;;;10.23;7.07;;;9.60;99.90;;;;;;5013567;28;20225;-76
2023/06/03 02:44:19;;;;;;;8.03;6.00;;;9.60;99.90;;;;;;5013584;28;20589;-75
2023/06/03 02:46:45;;;;;;;9.63;5.80;;;9.50;99.90;;;;;;5014763;28;20175;-75
2023/06/03 02:49:12;;;;;;;8.13;6.10;;;9.50;99.90;;;;;;5014016;28;20270;-76
2023/06/03 02:51:40;;;;;;;9.50;5.90;;;9.50;99.90;;;;;;5013588;28;20234;-76
2023/06/03 02:54:06;;;;;;;8.83;5.40;;;9.40;99.90;;;;;;5013417;28;20176;-76
2023/06/03 02:56:32;;;;;;;8.60;6.10;;;9.40;99.90;;;;;;5014543;28;20262;-76
2023/06/03 02:58:58;;;;;;;7.80;5.90;;;9.40;99.90;;;;;;5013280;28;20184;-76
2023/06/03 03:01:23;;;;;;;8.53;5.90;;;9.40;99.90;;;;;;5014449;28;20200;-76
2023/06/03 03:03:50;;;;;;;8.20;6.30;;;9.40;99.90;;;;;;5014314;28;20292;-75
2023/06/03 03:06:19;;;;;;;7.40;5.60;;;9.30;99.90;;;;;;5014455;28;20222;-75
2023/06/03 03:08:50;;;;;;;8.97;6.10;;;9.40;99.90;;;;;;5014504;28;20202;-76
2023/06/03 03:11:16;;;;;;;10.70;6.17;;;9.40;99.90;;;;;;5014316;28;20200;-75
2023/06/03 03:13:43;;;;;;;7.17;6.17;;;9.30;99.90;;;;;;5015139;28;20226;-77
2023/06/03 03:16:09;;;;;;;11.70;6.33;;;9.20;99.90;;;;;;5014486;28;20211;-75
2023/06/03 03:18:36;;;;;;;7.00;5.33;;;9.00;99.90;;;;;;5013011;28;20176;-76
2023/06/03 03:21:03;;;;;;;8.40;6.40;;;8.90;99.90;;;;;;5012865;28;20188;-75
2023/06/03 03:23:29;;;;;;;9.40;5.77;;;8.80;99.90;;;;;;5013882;28;20176;-76
2023/06/03 03:26:00;;;;;;;9.07;5.90;;;8.70;99.90;;;;;;5014195;28;20207;-75
2023/06/03 03:28:26;;;;;;;8.63;6.00;;;8.60;99.90;;;;;;5014271;28;20164;-75
2023/06/03 03:30:53;;;;;;;11.03;6.63;;;8.60;99.90;;;;;;5012786;28;20180;-76
2023/06/03 03:33:19;;;;;;;8.53;6.30;;;8.50;99.90;;;;;;5014150;28;20668;-75
2023/06/03 03:35:45;;;;;;;12.30;6.53;;;8.50;99.90;;;;;;5013958;28;20234;-76
2023/06/03 03:38:11;;;;;;;7.03;6.30;;;8.60;99.90;;;;;;5012890;28;20639;-75
2023/06/03 03:40:38;;;;;;;9.90;5.90;;;8.70;99.90;;;;;;5013998;28;20230;-76
2023/06/03 03:43:04;;;;;;;9.80;5.90;;;8.70;99.90;;;;;;5012645;28;20207;-76
2023/06/03 03:45:33;;;;;;;8.70;5.70;;;8.70;99.90;;;;;;5012769;28;20180;-75
2023/06/03 03:48:03;;;;;;;6.43;5.40;;;8.80;99.90;;;;;;5012686;28;20238;-76
2023/06/03 03:50:46;;;;;;;6.33;5.53;;;8.90;99.90;;;;;;5014329;28;20222;-75
2023/06/03 03:53:21;;;;;;;7.13;5.77;;;9.00;99.90;;;;;;5012641;28;20230;-76
2023/06/03 03:55:49;;;;;;;7.10;5.87;;;9.10;99.90;;;;;;5013682;28;20274;-76
2023/06/03 03:58:41;;;;;;;6.33;5.30;;;9.10;99.90;;;;;;5012598;28;20186;-75
2023/06/03 04:01:12;;;;;;;8.77;5.60;;;9.20;99.90;;;;;;5013984;28;20166;-76
2023/06/03 04:03:40;;;;;;;8.00;5.73;;;9.20;99.90;;;;;;5014185;28;20720;-75
2023/06/03 04:06:08;;;;;;;9.60;6.03;;;9.20;99.90;;;;;;5012413;28;20191;-76
2023/06/03 04:08:44;;;;;;;9.03;6.23;;;9.20;99.90;;;;;;5013009;28;20183;-76
2023/06/03 04:11:16;;;;;;;10.97;6.10;;;9.20;99.90;;;;;;5013717;28;20186;-76
2023/06/03 04:13:42;;;;;;;12.20;6.10;;;9.30;99.90;;;;;;5012362;28;20175;-75
2023/06/03 04:16:12;;;;;;;8.53;6.00;;;9.30;99.90;;;;;;5012581;28;20583;-75
2023/06/03 04:18:42;;;;;;;14.67;6.87;;;9.30;99.90;;;;;;5012595;28;20222;-75
2023/06/03 04:21:19;;;;;;;8.40;6.17;;;9.40;99.90;;;;;;5012378;28;20176;-76
2023/06/03 04:23:46;;;;;;;11.53;6.13;;;9.30;99.90;;;;;;5012998;28;20175;-75
2023/06/03 04:26:15;;;;;;;10.43;5.70;;;9.40;99.90;;;;;;5012224;28;20180;-75
2023/06/03 04:28:41;;;;;;;10.27;6.73;;;9.30;99.90;;;;;;5012383;28;20180;-76
2023/06/03 04:31:07;;;;;;;9.23;6.40;;;9.40;99.90;;;;;;5012163;28;20545;-76
2023/06/03 04:33:33;;;;;;;10.60;6.30;;;9.40;99.90;;;;;;5012205;28;20190;-76
2023/06/03 04:35:59;;;;;;;12.30;6.63;;;9.40;99.90;;;;;;5012960;28;20216;-77
2023/06/03 04:38:25;;;;;;;8.73;5.90;;;9.50;99.90;;;;;;5013578;28;20573;-76
2023/06/03 04:40:51;;;;;;;8.13;5.67;;;9.60;99.90;;;;;;5012053;28;20187;-76
2023/06/03 04:43:22;;;;;;;12.10;5.83;;;9.60;99.90;;;;;;5013410;28;20195;-76
2023/06/03 04:45:49;;;;;;;7.43;5.60;;;9.70;99.90;;;;;;5012154;28;20211;-76
2023/06/03 04:48:16;;;;;;;8.53;6.03;;;9.70;99.90;;;;;;5013408;28;20183;-76
2023/06/03 04:50:44;;;;;;;8.77;5.83;;;9.70;99.90;;;;;;5013385;28;20233;-75
2023/06/03 04:53:12;;;;;;;7.83;5.87;;;9.70;99.90;;;;;;5017129;28;20195;-76
2023/06/03 04:55:45;;;;;;;6.07;5.40;;;9.80;99.90;;;;;;5016957;28;20279;-75
2023/06/03 04:58:11;;;;;;;7.07;5.77;;;9.90;99.90;;;;;;5015963;28;20596;-75
2023/06/03 05:00:40;;;;;;;8.67;5.60;;;9.90;99.90;;;;;;5016883;28;20254;-76
2023/06/03 05:03:10;;;;;;;9.33;5.70;;;10.00;99.90;;;;;;5016743;28;20564;-76
2023/06/03 05:05:41;;;;;;;7.60;5.20;;;10.00;99.90;;;;;;5016015;28;20196;-76
2023/06/03 05:08:08;;;;;;;7.23;5.77;;;10.10;99.90;;;;;;5016742;28;20207;-76
2023/06/03 05:10:35;;;;;;;8.20;5.60;;;10.20;99.90;;;;;;5016675;28;20199;-76
2023/06/03 05:13:01;;;;;;;12.00;5.30;;;10.30;99.90;;;;;;5016667;28;20238;-76
2023/06/03 05:15:27;;;;;;;6.93;5.17;;;10.40;99.90;;;;;;5015260;28;20180;-75
2023/06/03 05:17:53;;;;;;;11.70;5.23;;;10.50;99.90;;;;;;5016546;28;20245;-76
2023/06/03 05:20:18;;;;;;;7.30;5.40;;;10.60;99.90;;;;;;5016526;28;20176;-76
2023/06/03 05:22:44;;;;;;;7.40;5.27;;;10.70;99.90;;;;;;5016409;28;20207;-76
2023/06/03 05:25:10;;;;;;;7.17;4.60;;;10.80;99.90;;;;;;5016023;28;20255;-77
2023/06/03 05:27:36;;;;;;;6.30;4.47;;;10.90;99.90;;;;;;5015048;28;20207;-76
2023/06/03 05:30:02;;;;;;;10.33;4.40;;;11.00;99.90;;;;;;5015147;28;20600;-76
2023/06/03 05:32:27;;;;;;;5.40;4.07;;;11.00;99.90;;;;;;5015007;28;20214;-76
2023/06/03 05:34:53;;;;;;;4.93;3.70;;;11.10;99.90;;;;;;5014995;28;20221;-76
2023/06/03 05:37:19;;;;;;;6.00;3.80;;;11.20;99.90;;;;;;5014781;28;20274;-77
2023/06/03 05:39:45;;;;;;;6.20;3.67;;;11.30;99.90;;;;;;5016563;28;20609;-76
2023/06/03 05:42:10;;;;;;;6.67;3.67;;;11.30;99.90;;;;;;5015932;28;20201;-77
2023/06/03 05:44:36;;;;;;;5.30;3.57;;;11.30;99.90;;;;;;5014765;28;20187;-77
2023/06/03 05:47:02;;;;;;;5.00;3.53;;;11.40;99.90;;;;;;5016217;28;20207;-76
2023/06/03 05:49:28;;;;;;;5.50;3.73;;;11.40;99.90;;;;;;5014724;28;20283;-76
2023/06/03 05:51:53;;;;;;;4.53;3.83;;;11.50;99.90;;;;;;5015814;28;20204;-76
2023/06/03 05:54:19;;;;;;;5.53;3.77;;;11.60;99.90;;;;;;5016038;28;20605;-76
2023/06/03 05:56:45;;;;;;;3.83;3.47;;;11.70;99.90;;;;;;5015738;28;20195;-77
2023/06/03 05:59:11;;;;;;;4.80;3.70;;;11.70;99.90;;;;;;5014406;28;20220;-76
2023/06/03 06:01:36;;;;;;;4.77;3.30;;;11.80;99.90;;;;;;5013628;28;20291;-76
2023/06/03 06:04:02;;;;;;;4.70;3.30;;;11.80;99.90;;;;;;5014375;28;20184;-78
2023/06/03 06:06:28;;;;;;;5.13;3.60;;;11.90;99.90;;;;;;5015534;28;20192;-76
2023/06/03 06:08:53;;;;;;;3.92;3.33;;;12.00;99.90;;;;;;5015624;28;20180;-76
2023/06/03 06:11:20;;;;;;;4.28;3.80;;;12.10;99.90;;;;;;5015453;28;20176;-77
2023/06/03 06:13:45;;;;;;;5.67;3.37;;;12.10;99.90;;;;;;5015358;28;20183;-76
2023/06/03 06:16:11;;;;;;;6.45;3.45;;;12.20;99.90;;;;;;5015298;28;20203;-76
2023/06/03 06:18:37;;;;;;;3.90;3.50;;;12.20;99.90;;;;;;5013993;28;20707;-75
2023/06/03 06:21:03;;;;;;;5.37;3.37;;;12.30;99.90;;;;;;5015167;28;20183;-74
2023/06/03 06:23:29;;;;;;;3.20;2.90;;;12.40;99.90;;;;;;5015037;28;20204;-74
2023/06/03 06:25:55;;;;;;;4.25;3.15;;;12.50;99.90;;;;;;5015099;28;20183;-74
2023/06/03 06:28:29;;;;;;;5.45;3.13;;;12.50;99.90;;;;;;5014956;28;20254;-74
2023/06/03 06:30:59;;;;;;;4.82;3.53;;;12.60;99.90;;;;;;5015073;28;20168;-74
2023/06/03 06:33:27;;;;;;;4.70;3.50;;;12.70;99.90;;;;;;5015232;28;20195;-74
2023/06/03 06:35:53;;;;;;;4.75;3.30;;;12.70;99.90;;;;;;5014684;28;20212;-74
2023/06/03 06:38:18;;;;;;;4.95;3.03;;;12.80;99.90;;;;;;5013757;28;20191;-74
2023/06/03 06:40:45;;;;;;;4.88;3.00;;;12.80;99.90;;;;;;5013420;28;20190;-74
2023/06/03 06:43:16;;;;;;;2.70;2.50;;;12.90;99.90;;;;;;5013352;28;20207;-74
2023/06/03 06:45:42;;;;;;;6.97;3.13;;;13.00;99.90;;;;;;5015188;28;20239;-75
2023/06/03 06:48:10;;;;;;;5.95;3.63;;;13.00;99.90;;;;;;5013855;28;20721;-74
2023/06/03 06:50:54;;;;;;;3.75;3.00;;;13.10;99.90;;;;;;5014694;28;20168;-75
2023/06/03 06:53:22;;;;;;;4.38;3.00;;;13.20;99.90;;;;;;5013339;28;20203;-74
2023/06/03 06:55:52;;;;;;;7.55;2.75;;;13.30;99.90;;;;;;5013179;28;20561;-74
2023/06/03 06:58:19;;;;;;;3.30;3.00;;;13.40;99.90;;;;;;5014444;28;20609;-75
2023/06/03 07:00:46;;;;;;;5.72;3.22;;;13.40;99.90;;;;;;5014734;28;20254;-75
2023/06/03 07:03:17;;;;;;;4.18;2.85;;;13.50;99.90;;;;;;5014758;28;20586;-73
2023/06/03 07:05:45;;;;;;;6.90;2.80;;;13.60;99.90;;;;;;5014499;28;20636;-73
2023/06/03 07:08:11;;;;;;;3.28;2.83;;;13.70;99.90;;;;;;5014526;28;20662;-73
2023/06/03 07:10:45;;;;;;;3.97;2.58;;;13.80;99.90;;;;;;5013421;28;20183;-73
2023/06/03 07:13:13;;;;;;;4.93;2.72;;;13.80;99.90;;;;;;5015122;28;20199;-73
2023/06/03 07:15:39;;;;;;;3.38;2.70;;;13.90;99.90;;;;;;5014533;28;20691;-74
2023/06/03 07:18:06;;;;;;;3.25;2.45;;;13.80;99.90;;;;;;5014585;28;20625;-74
2023/06/03 07:20:38;;;;;;;4.40;2.80;;;13.80;99.90;;;;;;5012863;28;20180;-74
2023/06/03 07:23:11;;;;;;;3.08;2.70;;;13.70;99.90;;;;;;5014023;28;20203;-75
2023/06/03 07:25:49;;;;;;;3.50;3.00;;;13.60;99.90;;;;;;5014481;28;20715;-75
2023/06/03 07:28:37;;;;;;;2.80;2.55;;;13.70;99.90;;;;;;5014517;28;20247;-74
2023/06/03 07:31:08;;;;;;;3.00;2.55;;;13.70;99.90;;;;;;5014052;28;20648;-74
2023/06/03 07:33:43;;;;;;;2.90;2.67;;;13.90;99.90;;;;;;5014372;28;20170;-75
2023/06/03 07:36:09;;;;;;;3.67;2.55;;;14.00;99.90;;;;;;5003893;28;20234;-74
2023/06/03 07:38:38;;;;;;;3.05;2.50;;;14.10;99.90;;;;;;4995116;28;20176;-75
2023/06/03 07:41:08;;;;;;;2.92;2.50;;;14.20;99.90;;;;;;4997957;28;20191;-76
2023/06/03 07:43:35;;;;;;;3.10;2.80;;;14.30;99.90;;;;;;5002462;28;20636;-76
2023/06/03 07:46:05;;;;;;;2.35;2.15;;;14.40;99.90;;;;;;5001368;28;20657;-77
2023/06/03 07:48:39;;;;;;;3.65;2.47;;;14.50;99.90;;;;;;5001396;28;20169;-75
2023/06/03 07:51:08;;;;;;;4.95;2.83;;;14.60;99.90;;;;;;4996252;28;20256;-77
2023/06/03 07:53:39;;;;;;;4.15;2.70;;;14.70;99.90;;;;;;4996436;28;20230;-76
2023/06/03 07:56:09;;;;;;;3.78;2.70;;;14.90;99.90;;;;;;4995503;28;20684;-76
2023/06/03 07:58:37;;;;;;;2.83;2.50;;;14.90;99.90;;;;;;4997172;28;20177;-76
2023/06/03 08:01:03;;;;;;;4.43;2.70;;;15.00;99.90;;;;;;4996790;28;20306;-74
2023/06/03 08:03:30;;;;;;;3.67;2.28;;;15.00;99.90;;;;;;4998081;28;20200;-74
2023/06/03 08:05:56;;;;;;;6.40;2.60;;;15.20;99.90;;;;;;5011713;28;20176;-74
2023/06/03 08:08:30;;;;;;;4.15;2.72;;;15.30;99.90;;;;;;5014566;28;20226;-76
2023/06/03 08:10:56;;;;;;;4.45;2.42;;;15.30;99.90;;;;;;5014685;28;20226;-73
2023/06/03 08:13:22;;;;;;;4.97;2.45;;;15.40;99.90;;;;;;5015179;28;20660;-74
2023/06/03 08:15:48;;;;;;;3.22;2.63;;;15.50;99.90;;;;;;5017548;28;20199;-74
2023/06/03 08:18:37;;;;;;;4.82;2.72;;;15.50;99.90;;;;;;5014637;28;20164;-74
2023/06/03 08:21:07;;;;;;;4.82;2.40;;;15.60;99.90;;;;;;5012896;28;20180;-74
2023/06/03 08:23:34;;;;;;;5.75;3.10;;;15.70;99.90;;;;;;5012921;28;20182;-73
2023/06/03 08:26:00;;;;;;;3.13;2.60;;;15.70;99.90;;;;;;5016764;28;20250;-75
2023/06/03 08:28:26;;;;;;;4.10;2.50;;;15.80;99.90;;;;;;5018929;28;20711;-78
2023/06/03 08:30:54;;;;;;;4.45;2.50;;;16.00;99.90;;;;;;5017720;28;20322;-78
2023/06/03 08:33:19;;;;;;;3.25;2.35;;;16.10;99.90;;;;;;5019765;28;20246;-79
2023/06/03 08:35:48;;;;;;;2.97;2.28;;;16.30;99.90;;;;;;5018707;28;20588;-76
2023/06/03 08:38:16;;;;;;;3.58;2.40;;;16.50;99.90;;;;;;5017437;28;20167;-76
2023/06/03 08:40:52;;;;;;;2.83;2.60;;;16.70;99.90;;;;;;5017152;28;20191;-76
2023/06/03 08:43:21;;;;;;;2.38;2.17;;;17.00;99.90;;;;;;5015770;28;20201;-76
2023/06/03 08:45:58;;;;;;;4.07;2.50;;;17.10;1.00;;;;;;5015720;28;20187;-75
2023/06/03 08:48:46;;;;;;;4.95;2.20;;;17.30;99.90;;;;;;5017314;28;20152;-75
2023/06/03 08:51:15;;;;;;;3.90;2.40;;;17.50;99.90;;;;;;5015640;28;20186;-77
2023/06/03 08:53:49;;;;;;;2.60;2.40;;;17.50;99.90;;;;;;5016782;28;20156;-76
2023/06/03 08:56:20;;;;;;;6.80;2.40;;;17.70;1.00;;;;;;5016678;28;20191;-76
2023/06/03 08:59:00;;;;;;;3.25;2.50;;;17.80;37.70;;;;;;5015911;28;20175;-75
2023/06/03 09:01:37;;;;;;;8.35;2.60;;;18.00;1.00;;;;;;5015641;28;20200;-76
2023/06/03 09:04:03;;;;;;;4.22;2.45;;;18.10;99.90;;;;;;5016746;28;20588;-77
2023/06/03 09:06:30;;;;;;;2.97;2.45;;;18.30;99.90;;;;;;5031769;28;20191;-74
2023/06/03 09:08:57;;;;;;;4.97;2.50;;;18.50;99.90;;;;;;5015455;28;20168;-74
2023/06/03 09:11:25;;;;;;;6.13;2.78;;;18.60;1.00;;;;;;5015204;28;20176;-73
2023/06/03 09:13:52;;;;;;;3.30;2.25;;;18.80;1.00;;;;;;5016550;28;20187;-73
2023/06/03 09:16:20;;;;;;;7.47;2.60;;;19.00;1.00;;;;;;5015167;28;20200;-73
2023/06/03 09:18:48;;;;;;;4.65;2.30;;;19.20;1.00;;;;;;5016382;28;20219;-73
2023/06/03 09:21:15;;;;;;;4.13;2.50;;;19.30;99.90;;;;;;5014938;28;20203;-74
2023/06/03 09:23:41;;;;;;;6.53;1.92;;;19.50;99.90;;;;;;5015179;28;20180;-73
2023/06/03 09:26:07;;;;;;;3.10;2.13;;;19.60;99.90;;;;;;5015350;28;20238;-73
2023/06/03 09:28:36;;;;;;;4.75;2.25;;;19.80;99.90;;;;;;5015497;28;20195;-76
2023/06/03 09:31:05;;;;;;;3.00;2.15;;;19.80;1.00;;;;;;5016242;28;20175;-76
2023/06/03 09:33:31;;;;;;;2.83;2.10;;;20.00;1.00;;;;;;5016022;28;20265;-76
2023/06/03 09:36:08;;;;;;;2.70;2.10;;;19.90;30.00;;;;;;5015750;28;20696;-77
2023/06/03 09:38:54;;;;;;;3.83;1.98;;;20.10;99.90;;;;;;5014895;28;20186;-75
2023/06/03 09:41:23;;;;;;;2.28;2.03;;;20.30;1.00;;;;;;5016153;28;20164;-75
2023/06/03 09:43:57;;;;;;;6.18;2.05;;;20.40;1.00;;;;;;5016064;28;20168;-76
2023/06/03 09:46:24;;;;;;;5.10;2.00;;;20.50;1.00;;;;;;5014712;28;20183;-76
2023/06/03 09:48:52;;;;;;;5.55;2.20;;;20.40;1.00;;;;;;5014573;28;20180;-75
2023/06/03 09:51:19;;;;;;;5.15;2.13;;;20.40;1.00;;;;;;5016110;28;20175;-76
2023/06/03 09:53:45;;;;;;;3.28;2.03;;;20.50;1.00;;;;;;5016222;28;20254;-78
2023/06/03 09:56:30;;;;;;;4.53;2.08;;;20.50;1.00;;;;;;5014845;28;20210;-76
2023/06/03 09:59:15;;;;;;;7.13;2.13;;;20.40;1.00;;;;;;5016469;28;20625;-77
2023/06/03 10:01:42;;;;;;;3.50;2.00;;;20.20;99.90;;;;;;5015256;28;20249;-77
2023/06/03 10:04:09;;;;;;;4.60;2.53;;;20.30;99.90;;;;;;5016223;28;20569;-76
2023/06/03 10:06:35;;;;;;;2.15;1.92;;;20.40;99.90;;;;;;5030731;28;20676;-76
2023/06/03 10:09:21;;;;;;;3.13;1.95;;;20.60;1.00;;;;;;5014063;28;20179;-76
2023/06/03 10:11:48;;;;;;;2.47;2.13;;;20.40;99.90;;;;;;5014905;28;20196;-76
2023/06/03 10:14:17;;;;;;;4.32;2.30;;;20.50;99.90;;;;;;5014530;28;20168;-78
2023/06/03 10:17:05;;;;;;;4.75;2.10;;;20.50;99.90;;;;;;5015779;28;20195;-77
2023/06/03 10:19:35;;;;;;;2.90;2.00;;;20.60;99.90;;;;;;5013793;28;20175;-77
2023/06/03 10:22:03;;;;;;;6.55;2.30;;;20.40;99.90;;;;;;5014558;28;20195;-76
2023/06/03 10:24:31;;;;;;;2.90;1.98;;;20.40;99.90;;;;;;5015484;28;20755;-75
2023/06/03 10:26:57;;;;;;;5.72;1.95;;;20.30;99.90;;;;;;5013784;28;20240;-74
2023/06/03 10:29:24;;;;;;;4.43;1.98;;;20.50;99.90;;;;;;5013794;28;20179;-75
2023/06/03 10:31:51;;;;;;;4.53;2.17;;;20.50;99.90;;;;;;5015538;28;20188;-74
2023/06/03 10:34:18;;;;;;;2.15;1.83;;;20.60;99.90;;;;;;5014407;28;20710;-74
2023/06/03 10:36:44;;;;;;;2.35;1.92;;;20.60;99.90;;;;;;5013310;28;20321;-74
2023/06/03 10:39:10;;;;;;;7.47;2.60;;;20.70;99.90;;;;;;5014928;28;20222;-75
2023/06/03 10:41:41;;;;;;;2.88;1.85;;;20.70;99.90;;;;;;5014930;28;20279;-75
2023/06/03 10:44:07;;;;;;;5.15;2.00;;;20.50;99.90;;;;;;5014157;28;20163;-77
2023/06/03 10:46:36;;;;;;;2.28;1.80;;;20.60;99.90;;;;;;5013406;28;20226;-77
2023/06/03 10:49:06;;;;;;;4.85;2.00;;;20.60;99.90;;;;;;5013967;28;20207;-77
2023/06/03 10:51:50;;;;;;;6.72;2.20;;;20.20;99.90;;;;;;5014397;28;20192;-77
2023/06/03 10:54:35;;;;;;;5.10;2.20;;;20.20;99.90;;;;;;5014791;28;20160;-77
2023/06/03 10:57:08;;;;;;;4.88;2.17;;;20.30;99.90;;;;;;5016565;28;20204;-75
2023/06/03 10:59:46;;;;;;;5.72;2.13;;;20.20;99.90;;;;;;5014792;28;20163;-75
2023/06/03 11:02:16;;;;;;;5.93;2.30;;;19.90;99.90;;;;;;5014541;28;20558;-73
2023/06/03 11:04:42;;;;;;;4.45;2.25;;;20.10;99.90;;;;;;5013563;28;20206;-74
2023/06/03 11:07:31;;;;;;;4.97;2.40;;;20.10;99.90;;;;;;5014159;28;20648;-75
2023/06/03 11:09:57;;;;;;;2.88;2.15;;;20.30;99.90;;;;;;5002409;28;20196;-74
2023/06/03 11:12:50;;;;;;;3.45;2.30;;;20.40;99.90;;;;;;5012674;28;20227;-74
2023/06/03 11:15:16;;;;;;;2.30;2.00;;;20.60;99.90;;;;;;5014399;28;20191;-75
2023/06/03 11:18:14;;;;;;;4.18;2.22;;;20.70;99.90;;;;;;5014086;28;20219;-75
2023/06/03 11:20:40;;;;;;;5.55;2.00;;;20.90;99.90;;;;;;5012827;28;20185;-75
2023/06/03 11:23:05;;;;;;;3.20;2.25;;;20.90;99.90;;;;;;5012741;28;20564;-75
2023/06/03 11:25:32;;;;;;;2.58;2.20;;;20.90;99.90;;;;;;5014394;28;20222;-74
2023/06/03 11:28:43;;;;;;;2.80;1.70;;;21.00;99.90;;;;;;5012709;28;20241;-75
2023/06/03 11:31:17;;;;;;;3.35;2.10;;;21.00;99.90;;;;;;5010365;28;20195;-77
2023/06/03 11:34:18;;;;;;;2.83;1.80;;;21.10;99.90;;;;;;5014699;28;20172;-77
2023/06/03 11:36:53;;;;;;;6.15;1.95;;;21.20;99.90;;;;;;5013678;28;20716;-77
2023/06/03 11:39:20;;;;;;;3.45;2.17;;;21.10;1.00;;;;;;5012663;28;20521;-77
2023/06/03 11:42:09;;;;;;;7.65;2.40;;;21.30;1.00;;;;;;5013817;28;20195;-76
2023/06/03 11:44:37;;;;;;;3.95;1.80;;;21.40;1.00;;;;;;5014120;28;20518;-77
2023/06/03 11:47:04;;;;;;;4.07;2.00;;;21.60;1.00;;;;;;5014607;28;20176;-77
2023/06/03 11:49:33;;;;;;;1.80;1.70;;;21.50;1.00;;;;;;5012550;28;20180;-77
2023/06/03 11:52:02;;;;;;;3.17;1.75;;;21.60;1.00;;;;;;5013845;28;20276;-77
2023/06/03 11:54:28;;;;;;;2.03;1.60;;;21.70;99.90;;;;;;5014010;28;20645;-77
2023/06/03 11:56:55;;;;;;;3.22;1.70;;;21.80;1.00;;;;;;5012696;28;20206;-77
2023/06/03 11:59:42;;;;;;;4.22;2.00;;;21.60;99.90;;;;;;5012844;28;20200;-77
2023/06/03 12:02:08;;;;;;;2.60;1.70;;;21.70;1.00;;;;;;5018904;28;20202;-77
2023/06/03 12:04:34;;;;;;;3.63;2.00;;;21.70;1.00;;;;;;5016857;28;20186;-77
2023/06/03 12:07:01;;;;;;;1.77;1.60;;;21.80;99.90;;;;;;5019042;28;20181;-79
2023/06/03 12:09:29;;;;;;;4.18;1.90;;;21.70;99.90;;;;;;5023636;28;20176;-76
2023/06/03 12:11:55;;;;;;;3.08;1.80;;;22.00;1.00;;;;;;5017373;28;20237;-74
2023/06/03 12:14:29;;;;;;;2.45;1.80;;;22.10;99.90;;;;;;5018506;28;20179;-75
2023/06/03 12:16:57;;;;;;;2.40;1.90;;;22.10;1.00;;;;;;5018115;28;20191;-77
2023/06/03 12:19:24;;;;;;;2.78;1.60;;;21.80;5.80;;;;;;5016751;28;20183;-78
2023/06/03 12:21:57;;;;;;;4.18;1.73;;;21.80;99.90;;;;;;5017677;28;20188;-78
2023/06/03 12:24:30;;;;;;;3.97;1.65;;;22.10;99.90;;;;;;5016434;28;20655;-77
2023/06/03 12:26:57;;;;;;;6.35;2.28;;;22.40;99.90;;;;;;5016252;28;20618;-77
2023/06/03 12:29:24;;;;;;;2.70;1.83;;;22.30;1.00;;;;;;5017703;28;20176;-77
2023/06/03 12:31:57;;;;;;;3.78;1.80;;;22.30;1.00;;;;;;5016101;28;20231;-77
2023/06/03 12:34:34;;;;;;;3.50;1.83;;;22.40;1.00;;;;;;5015974;28;20196;-77
2023/06/03 12:37:02;;;;;;;7.47;2.00;;;22.40;1.00;;;;;;5018699;28;20207;-78
2023/06/03 12:39:52;;;;;;;3.38;1.90;;;22.40;1.00;;;;;;5019057;28;20184;-78
2023/06/03 12:42:20;;;;;;;2.63;1.80;;;22.60;1.00;;;;;;5018134;28;20207;-77
2023/06/03 12:44:50;;;;;;;2.35;1.67;;;22.60;1.00;;;;;;5018382;28;20199;-78
2023/06/03 12:47:20;;;;;;;6.18;1.85;;;22.60;1.00;;;;;;5016325;28;20175;-77
2023/06/03 12:50:06;;;;;;;6.38;1.88;;;22.80;1.00;;;;;;5016520;28;20182;-76
2023/06/03 12:52:37;;;;;;;1.95;1.50;;;22.80;1.00;;;;;;5016116;28;20617;-75
2023/06/03 12:55:06;;;;;;;1.92;1.50;;;22.90;1.00;;;;;;5017511;28;20157;-75
2023/06/03 12:57:32;;;;;;;2.42;1.50;;;23.10;1.00;;;;;;5016572;28;20211;-75